Time;durP1;ratioP1;P1;durP2;ratioP2;P2;SDS_P1;SDS_P2;PMS_P1;PMS_P2;Temp;Humidity;BMP_temperature;BMP_pressure;BME280_temperature;BME280_humidity;BME280_pressure;Samples;Min_cycle;Max_cycle;Signal;HPM_P1;HPM_P2
2022/07/04 00:01:31;;;;;;;7.50;3.03;;;;;;;18.57;53.20;102035.25;5192686;28;20441;-39
2022/07/04 00:04:03;;;;;;;5.40;2.40;;;;;;;18.53;53.46;102026.75;5196553;28;22089;-44
2022/07/04 00:06:36;;;;;;;8.15;2.65;;;;;;;18.52;53.50;102025.09;5193755;28;20917;-41
2022/07/04 00:09:09;;;;;;;11.65;3.40;;;;;;;18.49;53.53;102016.56;5194694;28;20509;-45
2022/07/04 00:11:42;;;;;;;10.45;3.03;;;;;;;18.44;53.71;102015.25;5194141;28;20476;-38
2022/07/04 00:14:15;;;;;;;7.50;2.77;;;;;;;18.39;53.71;102017.59;5189253;28;20483;-38
2022/07/04 00:16:49;;;;;;;10.50;2.65;;;;;;;18.29;53.91;102011.63;5193534;28;20409;-37
2022/07/04 00:19:23;;;;;;;8.00;2.42;;;;;;;18.30;53.97;102013.31;5189863;28;20433;-38
2022/07/04 00:21:56;;;;;;;6.30;2.55;;;;;;;18.29;54.05;102008.09;5191281;28;20541;-39
2022/07/04 00:24:28;;;;;;;7.45;3.33;;;;;;;18.30;54.19;102013.31;5197711;28;20915;-38
2022/07/04 00:27:01;;;;;;;7.85;2.60;;;;;;;18.28;54.24;102015.31;5198767;28;20919;-42
2022/07/04 00:29:34;;;;;;;8.30;2.77;;;;;;;18.24;54.17;102013.97;5199496;28;20382;-43
2022/07/04 00:32:09;;;;;;;11.05;2.67;;;;;;;18.21;54.20;102003.63;5198957;28;20496;-40
2022/07/04 00:34:42;;;;;;;7.40;2.65;;;;;;;18.20;54.35;102007.28;5197129;28;20563;-37
2022/07/04 00:37:15;;;;;;;8.30;3.13;;;;;;;18.00;54.39;101979.28;5185297;28;20413;-39
2022/07/04 00:39:47;;;;;;;8.43;3.20;;;;;;;18.11;54.58;101993.09;5196287;28;20429;-37
2022/07/04 00:42:20;;;;;;;12.30;3.10;;;;;;;18.16;54.62;102000.63;5202837;28;20425;-38
2022/07/04 00:44:53;;;;;;;7.85;2.92;;;;;;;18.14;54.51;101999.97;5196857;28;20829;-38
2022/07/04 00:47:27;;;;;;;13.40;2.80;;;;;;;18.13;54.80;101998.28;5198978;28;20425;-39
2022/07/04 00:50:00;;;;;;;9.55;2.30;;;;;;;18.10;54.78;101995.97;5196573;28;20507;-44
2022/07/04 00:52:32;;;;;;;8.45;2.38;;;;;;;18.05;54.93;101988.44;5199935;28;20417;-41
2022/07/04 00:55:06;;;;;;;8.25;2.90;;;;;;;18.05;55.07;101984.94;5194659;28;20842;-39
2022/07/04 00:57:39;;;;;;;11.15;2.72;;;;;;;18.00;55.02;101995.34;5200008;28;20488;-38
2022/07/04 01:00:13;;;;;;;13.35;3.30;;;;;;;18.00;55.20;101996.16;5196196;28;20417;-40
2022/07/04 01:02:47;;;;;;;7.20;2.53;;;;;;;17.99;55.27;101999.81;5191471;28;20760;-37
2022/07/04 01:05:20;;;;;;;8.10;2.60;;;;;;;17.96;55.31;101989.47;5199016;28;20534;-38
2022/07/04 01:07:53;;;;;;;9.65;2.70;;;;;;;17.94;55.38;101988.81;5199247;28;20429;-45
2022/07/04 01:10:26;;;;;;;8.70;2.80;;;;;;;17.94;55.50;101986.16;5200970;28;20429;-40
2022/07/04 01:12:59;;;;;;;6.55;2.20;;;;;;;17.89;55.38;101983.97;5198864;28;20449;-44
2022/07/04 01:15:32;;;;;;;6.82;2.30;;;;;;;17.85;55.55;101973.81;5198117;28;20421;-38
2022/07/04 01:18:09;;;;;;;9.50;2.72;;;;;;;17.87;55.72;101986.00;5195679;28;20429;-40
2022/07/04 01:20:43;;;;;;;10.07;2.80;;;;;;;17.86;55.67;101978.97;5200118;28;20835;-39
2022/07/04 01:23:16;;;;;;;8.73;2.40;;;;;;;17.82;55.70;101974.97;5193919;28;20905;-39
2022/07/04 01:25:50;;;;;;;7.45;2.88;;;;;;;17.80;55.77;101970.78;5195905;28;20527;-38
2022/07/04 01:28:23;;;;;;;7.00;2.60;;;;;;;17.79;55.83;101977.16;5201117;28;20426;-38
2022/07/04 01:30:56;;;;;;;7.97;2.63;;;;;;;17.75;55.94;101972.13;5196460;28;20826;-41
2022/07/04 01:33:28;;;;;;;9.88;2.45;;;;;;;17.70;56.03;101968.28;5197928;28;20429;-42
2022/07/04 01:36:02;;;;;;;9.73;2.88;;;;;;;17.70;56.02;101973.63;5201123;28;20413;-38
2022/07/04 01:38:35;;;;;;;8.70;2.92;;;;;;;17.72;56.04;101972.47;5194823;28;20757;-38
2022/07/04 01:41:08;;;;;;;11.60;3.67;;;;;;;17.71;56.21;101980.63;5196792;28;20547;-39
2022/07/04 01:43:40;;;;;;;14.90;4.50;;;;;;;17.69;56.37;101971.97;5198299;28;20496;-38
2022/07/04 01:46:13;;;;;;;12.98;4.07;;;;;;;17.55;56.27;101956.59;5199349;28;20413;-39
2022/07/04 01:48:46;;;;;;;14.55;4.03;;;;;;;17.59;56.47;101963.28;5190701;28;20416;-38
2022/07/04 01:51:20;;;;;;;11.45;3.58;;;;;;;17.65;56.44;101981.28;5197565;28;20909;-37
2022/07/04 01:53:52;;;;;;;14.95;3.03;;;;;;;17.63;56.62;101975.31;5192919;28;20488;-38
2022/07/04 01:56:25;;;;;;;13.48;3.00;;;;;;;17.62;56.69;101970.94;5194496;28;20435;-43
2022/07/04 01:58:59;;;;;;;11.20;2.78;;;;;;;17.61;56.75;101974.63;5198284;28;20778;-42
2022/07/04 02:01:30;;;;;;;9.75;2.72;;;;;;;17.58;56.85;101969.63;5197601;28;20433;-44
2022/07/04 02:04:05;;;;;;;9.50;2.80;;;;;;;17.58;56.83;101969.63;5198136;28;20432;-37
2022/07/04 02:06:39;;;;;;;17.40;2.92;;;;;;;17.59;57.02;101971.28;5194247;28;20459;-40
2022/07/04 02:09:19;;;;;;;11.80;3.17;;;;;;;17.59;57.04;101971.28;5197222;28;20459;-38
2022/07/04 02:14:43;;;;;;;10.70;2.78;;;;;;;17.56;57.07;101971.63;5195902;28;20414;-42
2022/07/04 02:17:16;;;;;;;8.83;2.57;;;;;;;17.55;57.38;101980.66;5197146;28;20460;-38
2022/07/04 02:19:48;;;;;;;10.20;2.83;;;;;;;17.49;57.27;101972.28;5198629;28;20745;-38
2022/07/04 02:22:23;;;;;;;13.13;3.42;;;;;;;17.55;57.41;101969.97;5197817;28;20429;-37
2022/07/04 02:24:55;;;;;;;13.13;2.88;;;;;;;17.54;57.41;101973.66;5196706;28;20838;-41
2022/07/04 02:27:28;;;;;;;11.63;3.40;;;;;;;17.49;57.50;101966.94;5197760;28;20421;-37
2022/07/04 02:30:00;;;;;;;16.27;3.65;;;;;;;17.52;57.55;101981.81;5196151;28;20977;-38
2022/07/04 02:32:33;;;;;;;8.90;3.00;;;;;;;17.48;57.57;101970.63;5199914;28;20440;-38
2022/07/04 02:35:08;;;;;;;9.88;3.30;;;;;;;17.29;57.70;101939.75;5197176;28;20550;-42
2022/07/04 02:37:42;;;;;;;10.17;3.60;;;;;;;17.44;57.69;101980.00;5196579;28;20418;-37
2022/07/04 02:40:15;;;;;;;10.98;3.70;;;;;;;17.47;57.83;101974.31;5197251;28;20421;-40
2022/07/04 02:42:47;;;;;;;13.80;4.00;;;;;;;17.49;57.88;101979.47;5194661;28;20422;-38
2022/07/04 02:45:20;;;;;;;11.60;3.85;;;;;;;17.49;58.06;101982.97;5195666;28;20425;-37
2022/07/04 02:47:53;;;;;;;14.63;4.38;;;;;;;17.51;58.16;101978.31;5195810;28;20524;-40
2022/07/04 02:50:25;;;;;;;11.00;4.05;;;;;;;17.51;58.03;101974.81;5196458;28;20842;-38
2022/07/04 02:52:59;;;;;;;11.63;3.60;;;;;;;17.55;57.70;101991.34;5187638;28;20449;-38
2022/07/04 02:55:32;;;;;;;16.45;4.80;;;;;;;17.57;57.96;101973.31;5192357;28;20436;-38
2022/07/04 02:58:05;;;;;;;12.68;5.07;;;;;;;17.54;58.41;101966.47;5196706;28;20392;-38
2022/07/04 03:00:38;;;;;;;13.20;4.63;;;;;;;17.55;58.44;101970.78;5197666;28;20860;-37
2022/07/04 03:03:10;;;;;;;14.48;4.78;;;;;;;17.55;58.52;101961.94;5197944;28;20433;-42
2022/07/04 03:05:43;;;;;;;18.10;4.63;;;;;;;17.56;58.48;101960.94;5196202;28;20411;-38
2022/07/04 03:08:17;;;;;;;13.48;4.90;;;;;;;17.54;58.63;101961.13;5194471;28;20433;-39
2022/07/04 03:10:51;;;;;;;15.85;5.15;;;;;;;17.54;58.49;101957.63;5194572;28;20436;-38
2022/07/04 03:13:24;;;;;;;11.77;5.00;;;;;;;17.56;58.70;101966.28;5195387;28;20433;-39
2022/07/04 03:15:57;;;;;;;16.05;5.47;;;;;;;17.55;58.64;101968.13;5198435;28;20823;-37
2022/07/04 03:18:33;;;;;;;12.68;5.13;;;;;;;17.54;58.78;101970.97;5191991;28;20429;-41
2022/07/04 03:21:06;;;;;;;13.27;4.72;;;;;;;17.52;58.82;101979.97;5191323;28;20409;-41
2022/07/04 03:23:40;;;;;;;16.92;4.32;;;;;;;17.52;58.92;101974.63;5198119;28;20433;-37
2022/07/04 03:26:12;;;;;;;11.85;4.65;;;;;;;17.36;59.04;101939.94;5195797;28;20433;-39
2022/07/04 03:28:45;;;;;;;15.45;4.70;;;;;;;17.53;58.73;101967.47;5195074;28;20906;-36
2022/07/04 03:31:18;;;;;;;15.23;4.93;;;;;;;17.59;58.94;101972.16;5194962;28;20433;-37
2022/07/04 03:33:51;;;;;;;12.30;5.25;;;;;;;17.59;58.96;101981.97;5194111;28;20445;-37
2022/07/04 03:36:24;;;;;;;14.05;5.38;;;;;;;17.57;59.05;101976.81;5195088;28;20431;-37
2022/07/04 03:38:58;;;;;;;13.55;5.10;;;;;;;17.56;59.21;101971.63;5196684;28;20514;-38
2022/07/04 03:41:31;;;;;;;15.93;5.00;;;;;;;17.54;59.23;101968.31;5194064;28;20430;-39
2022/07/04 03:44:04;;;;;;;14.10;4.83;;;;;;;17.62;59.31;101968.28;5197266;28;20472;-38
2022/07/04 03:46:37;;;;;;;12.95;5.63;;;;;;;17.62;59.35;101978.97;5193922;28;20405;-38
2022/07/04 03:49:10;;;;;;;12.82;5.38;;;;;;;17.49;59.23;101945.59;5193755;28;20425;-38
2022/07/04 03:51:42;;;;;;;15.10;5.88;;;;;;;17.66;59.34;101967.78;5192846;28;20502;-40
2022/07/04 03:54:19;;;;;;;13.52;5.53;;;;;;;17.65;59.32;101976.81;5192324;28;20475;-38
2022/07/04 03:56:52;;;;;;;15.48;5.32;;;;;;;17.71;59.34;101972.59;5199283;28;20425;-37
2022/07/04 03:59:25;;;;;;;18.27;6.15;;;;;;;17.71;59.40;101978.81;5194971;28;20437;-37
2022/07/04 04:01:58;;;;;;;15.37;5.50;;;;;;;17.75;59.51;101979.31;5196491;28;20425;-40
2022/07/04 04:07:21;;;;;;;15.15;5.20;;;;;;;17.75;59.54;101981.97;5189349;28;20417;-39
2022/07/04 04:09:55;;;;;;;20.00;6.10;;;;;;;17.77;59.45;101979.13;5192798;28;20512;-41
2022/07/04 04:12:45;;;;;;;13.82;6.30;;;;;;;17.86;59.59;101997.66;5195957;28;20452;-38
2022/07/04 04:15:18;;;;;;;16.80;5.72;;;;;;;17.89;59.46;101992.00;5191410;28;20913;-38
2022/07/04 04:17:51;;;;;;;18.27;6.30;;;;;;;17.80;59.57;101963.59;5194636;28;20511;-39
2022/07/04 04:20:23;;;;;;;17.57;6.00;;;;;;;17.70;59.50;101946.91;5195112;28;20429;-41
2022/07/04 04:22:56;;;;;;;14.52;6.15;;;;;;;17.97;59.65;101975.13;5194716;28;20425;-39
2022/07/04 04:25:30;;;;;;;17.17;6.30;;;;;;;17.95;59.59;101977.13;5196749;28;20418;-38
2022/07/04 04:28:03;;;;;;;17.73;5.75;;;;;;;18.00;59.64;101979.28;5195687;28;20578;-39
2022/07/04 04:30:36;;;;;;;22.35;6.93;;;;;;;18.03;59.72;101984.28;5195379;28;20417;-37
2022/07/04 04:33:09;;;;;;;16.00;6.35;;;;;;;18.05;59.73;101988.44;5199488;28;20889;-38
2022/07/04 04:35:41;;;;;;;20.20;6.45;;;;;;;18.11;59.41;102011.00;5196236;28;20878;-38
2022/07/04 04:38:14;;;;;;;24.58;6.13;;;;;;;18.19;59.71;101989.59;5195859;28;20436;-38
2022/07/04 04:40:48;;;;;;;15.30;6.30;;;;;;;18.26;59.68;101985.22;5195200;28;20468;-37
2022/07/04 04:43:21;;;;;;;12.88;5.38;;;;;;;18.38;59.67;101991.84;5196913;28;20431;-42
2022/07/04 04:45:54;;;;;;;18.40;5.95;;;;;;;18.41;59.49;101991.50;5194803;28;20521;-39
2022/07/04 04:48:27;;;;;;;27.58;5.70;;;;;;;18.44;59.51;101980.47;5191295;28;20425;-39
2022/07/04 04:51:00;;;;;;;17.25;6.22;;;;;;;18.58;59.62;101996.78;5194177;28;20774;-39
2022/07/04 04:53:33;;;;;;;20.15;6.82;;;;;;;18.61;59.44;102004.47;5197433;28;20456;-39
2022/07/04 04:56:07;;;;;;;17.33;5.32;;;;;;;18.63;59.57;102010.47;5183174;28;20984;-37
2022/07/04 04:58:40;;;;;;;16.98;5.80;;;;;;;18.67;59.56;102009.13;5192175;28;20435;-38
2022/07/04 05:01:12;;;;;;;21.60;5.88;;;;;;;18.72;59.43;102012.13;5182087;28;20449;-40
2022/07/04 05:03:45;;;;;;;24.27;5.88;;;;;;;18.80;59.50;102009.44;5189856;28;20413;-39
2022/07/04 05:06:18;;;;;;;20.20;5.00;;;;;;;18.79;59.43;102002.41;5190984;28;20509;-38
2022/07/04 05:08:50;;;;;;;16.20;4.78;;;;;;;18.94;59.41;102010.50;5195700;28;20440;-37
2022/07/04 05:11:25;;;;;;;21.77;4.63;;;;;;;19.13;59.01;102011.91;5194409;28;20515;-38
2022/07/04 05:13:57;;;;;;;13.53;4.07;;;;;;;20.33;57.96;102019.22;5198099;28;20766;-39
2022/07/04 05:16:30;;;;;;;13.68;3.25;;;;;;;21.92;56.13;102015.56;5199548;28;20441;-39
2022/07/04 05:19:03;;;;;;;7.35;2.47;;;;;;;23.48;54.69;102013.91;5203727;28;20500;-42
2022/07/04 05:21:35;;;;;;;10.18;3.05;;;;;;;24.92;53.18;102003.19;5201016;28;20508;-39
2022/07/04 05:24:11;;;;;;;6.97;2.35;;;;;;;26.33;51.46;102018.06;5197207;28;20425;-41
2022/07/04 05:26:45;;;;;;;10.25;2.90;;;;;;;27.57;49.74;102019.25;5200770;28;20937;-39
2022/07/04 05:29:17;;;;;;;6.10;1.88;;;;;;;28.64;48.19;102019.97;5201055;28;20742;-39
2022/07/04 05:31:50;;;;;;;9.48;1.90;;;;;;;29.60;46.60;102023.59;5205768;28;20444;-39
2022/07/04 05:34:23;;;;;;;6.05;1.60;;;;;;;30.48;45.04;102028.41;5204475;28;20426;-38
2022/07/04 05:36:56;;;;;;;7.43;1.80;;;;;;;31.24;43.56;102026.47;5204511;28;20424;-39
2022/07/04 05:39:28;;;;;;;5.32;1.50;;;;;;;31.88;42.39;102008.38;5204688;28;20440;-38
2022/07/04 05:42:03;;;;;;;6.70;1.50;;;;;;;32.56;41.40;102017.47;5188845;28;20425;-41
2022/07/04 05:44:36;;;;;;;5.60;1.25;;;;;;;33.20;40.11;102010.75;5203677;28;20406;-40
2022/07/04 05:47:09;;;;;;;6.22;1.90;;;;;;;33.83;38.84;102006.84;5205752;28;20409;-39
2022/07/04 05:49:41;;;;;;;5.30;1.40;;;;;;;34.52;37.69;102013.44;5201424;28;20492;-40
2022/07/04 05:52:14;;;;;;;4.75;1.70;;;;;;;35.08;36.81;102013.09;5201016;28;20417;-39
2022/07/04 05:54:48;;;;;;;2.78;1.30;;;;;;;35.64;35.73;102009.03;5193654;28;20483;-43
2022/07/04 05:57:22;;;;;;;3.33;1.17;;;;;;;36.21;34.83;102008.13;5170974;28;20443;-45
2022/07/04 05:59:55;;;;;;;4.85;1.00;;;;;;;36.62;34.10;102013.06;5194818;28;20440;-41
2022/07/04 06:02:28;;;;;;;4.55;1.20;;;;;;;37.09;33.13;102011.25;5199991;28;20433;-41
2022/07/04 06:05:00;;;;;;;4.50;0.80;;;;;;;37.48;32.52;102010.06;5197048;28;20911;-41
2022/07/04 06:07:33;;;;;;;4.63;1.20;;;;;;;37.83;31.65;102002.22;5201558;28;20410;-40
2022/07/04 06:10:07;;;;;;;2.60;0.90;;;;;;;38.20;30.94;102005.88;5198426;28;20436;-40
2022/07/04 06:12:41;;;;;;;3.42;1.38;;;;;;;38.44;30.43;101997.38;5194176;28;20510;-41
2022/07/04 06:15:15;;;;;;;3.85;0.90;;;;;;;38.82;29.73;102014.41;5198294;28;20428;-40
2022/07/04 06:17:47;;;;;;;2.53;1.00;;;;;;;39.15;29.15;102005.91;5189554;28;20551;-39
2022/07/04 06:20:20;;;;;;;3.30;1.00;;;;;;;39.47;28.55;101998.44;5194190;28;20416;-39
2022/07/04 06:22:53;;;;;;;1.90;0.90;;;;;;;39.67;28.08;102003.38;5188322;28;21921;-40
2022/07/04 06:25:26;;;;;;;3.85;1.20;;;;;;;39.93;27.83;102006.28;5192714;28;20955;-39
2022/07/04 06:28:01;;;;;;;4.90;1.10;;;;;;;39.97;27.27;101987.06;5191095;28;20524;-39
2022/07/04 06:30:33;;;;;;;2.88;1.00;;;;;;;40.30;26.83;102009.63;5198696;28;20507;-41
2022/07/04 06:33:06;;;;;;;3.25;1.05;;;;;;;40.44;26.72;102007.50;5198507;28;20452;-40
2022/07/04 06:35:51;;;;;;;3.83;1.08;;;;;;;40.54;26.13;102003.59;5200862;28;20499;-40
2022/07/04 06:38:26;;;;;;;2.58;1.00;;;;;;;40.64;26.10;102011.63;5195203;28;20512;-40
2022/07/04 06:41:00;;;;;;;2.38;0.70;;;;;;;40.86;25.76;102010.63;5196139;28;20512;-40
2022/07/04 06:43:34;;;;;;;5.32;1.02;;;;;;;41.05;25.37;102003.94;5198367;28;20899;-40
2022/07/04 06:46:07;;;;;;;2.22;1.10;;;;;;;41.19;25.13;102005.38;5197292;28;20413;-40
2022/07/04 06:48:40;;;;;;;3.25;1.00;;;;;;;41.30;24.71;102010.53;5199645;28;20451;-42
2022/07/04 06:51:13;;;;;;;1.93;0.87;;;;;;;41.15;24.96;101998.84;5199413;28;20927;-40
2022/07/04 06:53:46;;;;;;;3.20;0.70;;;;;;;41.26;24.67;102023.44;5191898;28;20512;-41
2022/07/04 06:56:19;;;;;;;2.67;0.50;;;;;;;41.08;24.37;102023.47;5194270;28;20428;-41
2022/07/04 06:58:53;;;;;;;7.00;1.15;;;;;;;40.31;24.63;101951.16;5194240;28;20425;-40
2022/07/04 07:01:26;;;;;;;3.65;0.70;;;;;;;40.63;24.70;102015.50;5195877;28;20421;-44
2022/07/04 07:03:59;;;;;;;3.15;0.75;;;;;;;40.49;24.27;101987.16;5185341;28;20468;-40
2022/07/04 07:06:31;;;;;;;1.50;0.80;;;;;;;40.73;24.50;102012.44;5180524;28;20569;-40
2022/07/04 07:09:04;;;;;;;3.07;0.97;;;;;;;40.74;24.06;102014.03;5197484;28;20771;-41
2022/07/04 07:11:37;;;;;;;3.50;0.70;;;;;;;40.78;24.13;102003.94;5198112;28;20444;-41
2022/07/04 07:14:11;;;;;;;4.93;0.80;;;;;;;40.86;23.69;102007.03;5196757;28;20435;-40
2022/07/04 07:16:44;;;;;;;2.70;1.20;;;;;;;40.89;23.44;101998.88;5197268;28;20439;-43
2022/07/04 07:19:17;;;;;;;2.77;0.60;;;;;;;40.94;23.68;102006.19;5193427;28;20460;-40
2022/07/04 07:21:49;;;;;;;2.15;0.80;;;;;;;40.91;23.51;102006.84;5197446;28;20429;-42
2022/07/04 07:24:23;;;;;;;1.98;0.70;;;;;;;40.62;23.41;102013.09;5173442;28;20437;-42
2022/07/04 07:26:58;;;;;;;1.23;0.60;;;;;;;40.37;23.66;102009.13;5192872;28;20739;-41
2022/07/04 07:29:33;;;;;;;2.42;0.70;;;;;;;40.19;23.76;102014.66;5184044;28;20511;-42
2022/07/04 07:32:07;;;;;;;2.27;0.77;;;;;;;40.11;23.79;102007.13;5197071;28;20464;-41
2022/07/04 07:34:40;;;;;;;1.80;0.70;;;;;;;40.13;23.70;102015.91;5189646;28;20432;-40
2022/07/04 07:37:13;;;;;;;3.03;0.90;;;;;;;40.22;23.57;102018.72;5193013;28;20413;-42
2022/07/04 07:39:45;;;;;;;4.47;0.90;;;;;;;40.03;23.66;102019.00;5187722;28;20975;-40
2022/07/04 07:42:18;;;;;;;2.53;0.85;;;;;;;39.30;23.91;102013.78;5191375;28;20898;-40
2022/07/04 07:44:52;;;;;;;3.97;0.70;;;;;;;38.49;24.33;102009.09;5192875;28;20429;-39
2022/07/04 07:47:25;;;;;;;2.97;0.85;;;;;;;37.70;24.46;102020.38;5197610;28;20437;-42
2022/07/04 07:49:58;;;;;;;4.80;0.70;;;;;;;36.78;25.15;102021.91;5198206;28;20770;-41
2022/07/04 07:52:31;;;;;;;1.13;0.60;;;;;;;36.02;25.59;102026.50;5198538;28;20440;-42
2022/07/04 07:55:04;;;;;;;1.92;0.80;;;;;;;35.50;25.70;102030.88;5197069;28;20773;-41
2022/07/04 07:57:37;;;;;;;1.60;0.70;;;;;;;35.23;25.81;102026.69;5197422;28;20818;-42
2022/07/04 08:00:13;;;;;;;2.40;1.02;;;;;;;35.37;26.14;102023.28;5193890;28;20425;-42
2022/07/04 08:05:39;;;;;;;3.00;0.73;;;;;;;35.81;25.73;102009.41;5196665;28;20755;-41
2022/07/04 08:08:11;;;;;;;4.30;1.10;;;;;;;36.05;25.72;102039.69;5197360;28;20425;-39
2022/07/04 08:10:44;;;;;;;1.90;0.73;;;;;;;35.92;25.45;102038.41;5196997;28;20910;-40
2022/07/04 08:13:17;;;;;;;3.47;1.25;;;;;;;35.78;25.55;102042.97;5192288;28;20514;-41
2022/07/04 08:15:51;;;;;;;2.78;0.55;;;;;;;35.58;25.33;102054.97;5198345;28;20425;-40
2022/07/04 08:18:24;;;;;;;2.45;0.80;;;;;;;35.23;25.61;102048.66;5198324;28;20425;-39
2022/07/04 08:20:57;;;;;;;3.50;0.95;;;;;;;34.74;25.78;102052.28;5199876;28;20440;-40
2022/07/04 08:23:32;;;;;;;2.38;1.00;;;;;;;34.37;25.94;102058.22;5195618;28;20427;-41
2022/07/04 08:26:05;;;;;;;3.78;0.68;;;;;;;34.12;26.05;102059.94;5200500;28;20524;-44
2022/07/04 08:28:38;;;;;;;3.30;0.87;;;;;;;33.85;26.32;102052.06;5197746;28;20928;-39
2022/07/04 08:31:12;;;;;;;2.40;0.73;;;;;;;33.71;26.12;102067.44;5197910;28;20536;-40
2022/07/04 08:36:19;;;;;;;4.53;0.97;;;;;;;33.45;26.52;102064.69;5211284;28;20420;-41
2022/07/04 08:38:51;;;;;;;6.47;1.37;;;;;;;33.45;26.20;102072.09;5230902;28;20493;-40
2022/07/04 08:41:24;;;;;;;3.05;1.17;;;;;;;33.40;26.50;102067.41;5214217;28;20417;-41
2022/07/04 08:43:57;;;;;;;4.10;1.13;;;;;;;33.31;26.43;102068.25;5214955;28;21022;-41
2022/07/04 08:46:34;;;;;;;4.07;1.02;;;;;;;33.24;26.40;102080.28;5214725;28;20495;-40
2022/07/04 08:49:18;;;;;;;3.03;0.90;;;;;;;33.15;26.48;102079.19;5220199;28;20500;-41
2022/07/04 08:51:55;;;;;;;2.45;0.85;;;;;;;33.05;26.39;102080.00;5211677;28;20426;-40
2022/07/04 09:00:11;;;;;;;3.08;1.00;;;;;;;32.40;26.88;102081.38;5218768;28;20407;-42
2022/07/04 09:02:46;;;;;;;2.28;0.70;;;;;;;32.31;27.11;102088.44;5218831;28;20904;-40
2022/07/04 09:05:19;;;;;;;3.75;0.88;;;;;;;32.27;27.27;102090.03;5208803;28;20779;-39
2022/07/04 09:08:20;;;;;;;3.72;1.00;;;;;;;32.18;27.15;102095.22;5216244;28;20436;-42
2022/07/04 09:10:54;;;;;;;2.10;0.88;;;;;;;31.82;27.62;102061.34;5216584;28;20430;-42
2022/07/04 09:13:27;;;;;;;4.47;1.07;;;;;;;31.83;27.74;102098.50;5222284;28;20466;-40
2022/07/04 09:16:02;;;;;;;3.97;1.30;;;;;;;31.59;27.76;102082.50;5205155;28;20454;-41
2022/07/04 09:18:38;;;;;;;3.85;0.80;;;;;;;31.24;27.85;102083.78;5217001;28;20427;-42
2022/07/04 09:21:11;;;;;;;3.53;1.48;;;;;;;31.06;28.17;102100.50;5217909;28;20419;-43
2022/07/04 09:23:45;;;;;;;3.83;1.17;;;;;;;30.87;28.17;102086.41;5214941;28;20411;-41
2022/07/04 09:26:19;;;;;;;4.38;0.80;;;;;;;30.89;28.37;102088.88;5214956;28;20545;-44
2022/07/04 09:29:23;;;;;;;3.45;1.02;;;;;;;30.72;28.47;102087.03;5220724;28;20600;-46
2022/07/04 09:31:56;;;;;;;3.47;0.90;;;;;;;30.73;28.33;102080.50;5211481;28;20458;-48
2022/07/04 09:34:30;;;;;;;3.83;1.20;;;;;;;30.65;28.38;102089.13;5208807;28;20439;-46
2022/07/04 09:37:03;;;;;;;5.05;0.90;;;;;;;30.45;28.44;102073.34;5201368;28;20918;-46
2022/07/04 09:39:38;;;;;;;2.40;0.70;;;;;;;30.41;28.66;102094.00;5205570;28;20429;-52
2022/07/04 09:42:13;;;;;;;6.85;1.20;;;;;;;30.41;28.52;102085.81;5198900;28;20589;-50
2022/07/04 09:44:49;;;;;;;2.60;0.93;;;;;;;30.47;28.65;102092.16;5202209;28;20422;-49
2022/07/04 09:47:24;;;;;;;4.43;1.27;;;;;;;30.53;28.66;102085.69;5202610;28;20415;-50
2022/07/04 09:50:03;;;;;;;1.77;0.73;;;;;;;30.63;28.45;102080.41;5207305;28;21044;-54
2022/07/04 09:52:50;;;;;;;5.55;1.00;;;;;;;30.89;28.31;102106.06;5207266;28;20403;-49
2022/07/04 09:55:27;;;;;;;3.88;0.82;;;;;;;30.78;28.35;102094.25;5197244;28;20417;-51
2022/07/04 09:58:01;;;;;;;2.83;0.98;;;;;;;30.76;28.30;102096.34;5184444;28;20444;-51
2022/07/04 10:00:36;;;;;;;2.53;1.17;;;;;;;30.84;28.34;102097.00;5194324;28;20758;-47
2022/07/04 10:03:21;;;;;;;2.80;0.73;;;;;;;30.88;27.99;102100.91;5194202;28;20933;-46
2022/07/04 10:06:07;;;;;;;3.13;1.02;;;;;;;30.85;28.04;102098.69;5187354;28;20421;-49
2022/07/04 10:08:41;;;;;;;3.25;0.73;;;;;;;30.63;28.10;102058.56;5187373;28;20422;-50
2022/07/04 10:11:14;;;;;;;4.32;1.23;;;;;;;31.05;27.96;102098.06;5191388;28;20425;-47
2022/07/04 10:13:47;;;;;;;2.38;0.68;;;;;;;30.99;27.74;102087.09;5163661;28;20405;-53
2022/07/04 10:16:20;;;;;;;2.50;0.80;;;;;;;30.90;27.95;102101.44;5190049;28;20415;-52
2022/07/04 10:18:53;;;;;;;2.35;0.90;;;;;;;30.76;27.79;102071.81;5195755;28;20428;-54
2022/07/04 10:21:28;;;;;;;3.88;0.70;;;;;;;30.84;27.78;102094.28;5181684;28;20724;-57
2022/07/04 10:24:03;;;;;;;4.15;0.68;;;;;;;30.25;27.59;102013.94;5203807;28;20423;-53
2022/07/04 10:26:37;;;;;;;1.90;0.50;;;;;;;30.71;27.53;102092.75;5202831;28;22403;-50
2022/07/04 10:29:13;;;;;;;1.40;0.57;;;;;;;30.68;27.39;102088.63;5194465;28;20487;-56
2022/07/04 10:31:46;;;;;;;2.85;0.80;;;;;;;30.55;27.32;102089.81;5195955;28;20483;-45
2022/07/04 10:34:18;;;;;;;2.35;0.50;;;;;;;30.43;27.34;102085.59;5186422;28;20503;-48
2022/07/04 10:36:54;;;;;;;1.60;0.60;;;;;;;30.30;27.10;102073.16;5196107;28;20425;-51
2022/07/04 10:39:29;;;;;;;2.15;0.80;;;;;;;30.39;26.96;102079.00;5189832;28;20798;-51
2022/07/04 10:42:02;;;;;;;3.65;0.80;;;;;;;30.27;27.12;102079.09;5189946;28;20462;-52
2022/07/04 10:44:38;;;;;;;2.47;0.90;;;;;;;30.26;27.04;102081.00;5187239;28;20804;-49
2022/07/04 10:47:26;;;;;;;2.28;0.63;;;;;;;30.20;27.02;102082.00;5199399;28;20413;-52
2022/07/04 10:50:33;;;;;;;2.95;0.90;;;;;;;30.21;26.79;102088.28;5191940;28;20430;-51
2022/07/04 10:53:12;;;;;;;2.33;0.70;;;;;;;30.13;26.70;102080.50;5184881;28;20421;-57
2022/07/04 10:55:45;;;;;;;1.92;0.65;;;;;;;30.29;26.64;102096.88;5190815;28;20778;-53
2022/07/04 10:58:40;;;;;;;3.78;0.68;;;;;;;30.24;26.79;102096.78;5190300;28;20413;-49
2022/07/04 11:01:13;;;;;;;5.28;0.52;;;;;;;30.21;26.57;102089.09;5192102;28;20608;-49
2022/07/04 11:03:47;;;;;;;1.42;0.57;;;;;;;30.20;26.39;102090.19;5186151;28;20899;-43
2022/07/04 11:06:54;;;;;;;3.13;0.80;;;;;;;30.21;26.24;102097.28;5190114;28;20465;-47
2022/07/04 11:09:28;;;;;;;2.53;0.57;;;;;;;30.10;26.07;102099.03;5186699;28;20422;-52
2022/07/04 11:12:03;;;;;;;2.65;0.60;;;;;;;30.07;26.16;102083.19;5174688;28;20446;-52
2022/07/04 11:14:42;;;;;;;2.55;0.73;;;;;;;30.03;26.32;102081.19;5192731;28;20492;-51
2022/07/04 11:17:20;;;;;;;2.70;0.50;;;;;;;30.01;26.21;102083.31;5190809;28;20524;-51
2022/07/04 11:19:59;;;;;;;1.52;0.80;;;;;;;29.92;26.37;102077.50;5187376;28;20754;-49
2022/07/04 11:22:32;;;;;;;2.05;0.70;;;;;;;29.91;26.41;102077.72;5192374;28;20422;-51
2022/07/04 11:25:08;;;;;;;1.95;0.57;;;;;;;29.88;26.30;102079.88;5192924;28;20427;-48
2022/07/04 11:27:41;;;;;;;2.47;0.57;;;;;;;29.84;26.10;102073.28;5191229;28;20542;-50
2022/07/04 11:30:16;;;;;;;2.85;0.70;;;;;;;29.78;26.22;102071.56;5192883;28;20438;-53
2022/07/04 11:32:49;;;;;;;0.88;0.35;;;;;;;29.83;26.23;102076.28;5179984;28;20786;-56
2022/07/04 11:35:23;;;;;;;1.67;0.70;;;;;;;29.88;25.97;102073.59;5198454;28;20422;-53
2022/07/04 11:37:58;;;;;;;2.80;0.75;;;;;;;29.95;26.03;102067.97;5211023;28;20551;-58
2022/07/04 11:46:27;;;;;;;3.15;0.65;;;;;;;29.97;25.85;102076.72;5206708;28;20916;-52
2022/07/04 11:49:10;;;;;;;0.47;0.30;;;;;;;29.93;25.70;102075.59;5210487;28;20787;-49
2022/07/04 11:51:47;;;;;;;1.73;0.68;;;;;;;29.92;25.70;102049.41;5215739;28;20869;-51
2022/07/04 11:54:20;;;;;;;1.55;0.70;;;;;;;30.00;25.86;102065.34;5212593;28;20449;-55
2022/07/04 11:57:08;;;;;;;1.30;0.60;;;;;;;30.04;25.66;102063.75;5212301;28;20423;-47
2022/07/04 11:59:42;;;;;;;1.77;0.63;;;;;;;29.82;25.52;102029.16;5208997;28;20428;-49
2022/07/04 12:02:17;;;;;;;3.37;0.73;;;;;;;30.21;25.58;102070.03;5202738;28;20455;-49
2022/07/04 12:04:49;;;;;;;1.40;0.60;;;;;;;30.20;25.54;102071.13;5203272;28;20423;-49
2022/07/04 12:07:25;;;;;;;1.25;0.60;;;;;;;30.10;25.49;102060.03;5217141;28;20413;-47
2022/07/04 12:10:08;;;;;;;2.80;0.60;;;;;;;30.01;25.73;102066.97;5215478;28;20423;-50
2022/07/04 12:12:55;;;;;;;2.53;0.65;;;;;;;29.93;25.93;102064.69;5211057;28;20541;-45
2022/07/04 12:15:39;;;;;;;2.35;1.00;;;;;;;29.96;25.70;102067.75;5205898;28;20505;-50
2022/07/04 12:18:18;;;;;;;2.83;0.50;;;;;;;29.96;25.77;102065.03;5210339;28;20508;-48